createdAt,value
2018-07-28T00:01:12.258Z,95.77
2018-07-28T00:03:42.929Z,94.68
2018-07-28T00:06:13.840Z,94.85
2018-07-28T00:08:44.668Z,96.07
2018-07-28T00:11:15.091Z,97.45
2018-07-28T00:13:45.563Z,97.46
2018-07-28T00:16:15.931Z,98.96
2018-07-28T00:18:46.568Z,99.16
2018-07-28T00:21:16.943Z,99.50
2018-07-28T00:23:47.592Z,98.36
2018-07-28T00:26:44.154Z,98.97
2018-07-28T00:29:14.496Z,99.46
2018-07-28T00:31:44.835Z,98.90
2018-07-28T00:34:18.097Z,98.29
2018-07-28T00:36:48.815Z,97.93
2018-07-28T00:39:19.987Z,97.82
2018-07-28T00:41:50.271Z,96.99
2018-07-28T00:44:20.542Z,96.37
2018-07-28T00:50:32.361Z,91.89
2018-07-28T00:53:09.266Z,91.64
2018-07-28T00:56:49.413Z,89.14
2018-07-28T00:59:19.745Z,89.26
2018-07-28T01:01:50.885Z,90.02
2018-07-28T01:04:28.581Z,91.06
2018-07-28T01:06:58.757Z,89.85
2018-07-28T01:09:29.143Z,88.74
2018-07-28T01:12:01.929Z,88.00
2018-07-28T01:14:32.361Z,86.55
2018-07-28T01:17:03.777Z,86.08
2018-07-28T01:19:34.064Z,84.32
2018-07-28T01:22:04.309Z,82.71
2018-07-28T01:24:34.720Z,83.36
2018-07-28T01:27:05.624Z,84.25
2018-07-28T01:29:35.827Z,84.84
2018-07-28T01:32:06.913Z,85.50
2018-07-28T01:34:37.224Z,86.03
2018-07-28T01:37:07.464Z,86.96
2018-07-28T01:39:38.660Z,85.20
2018-07-28T01:42:09.151Z,85.21
2018-07-28T01:44:39.873Z,83.99
2018-07-28T01:47:11.117Z,84.68
2018-07-28T01:49:41.632Z,86.37
2018-07-28T01:52:11.978Z,88.69
2018-07-28T01:54:42.794Z,89.67
2018-07-28T01:57:13.207Z,90.73
2018-07-28T01:59:43.517Z,90.27
2018-07-28T02:02:13.836Z,88.72
2018-07-28T02:04:44.084Z,87.27
2018-07-28T02:07:14.404Z,86.60
2018-07-28T02:09:44.738Z,86.62
2018-07-28T02:12:16.143Z,87.17
2018-07-28T02:14:46.521Z,88.67
2018-07-28T02:17:23.440Z,89.50
2018-07-28T02:19:53.854Z,89.71
2018-07-28T02:22:24.118Z,91.48
2018-07-28T02:24:54.355Z,93.47
2018-07-28T02:27:24.713Z,96.43
2018-07-28T02:29:55.012Z,97.75
2018-07-28T02:32:25.320Z,98.71
2018-07-28T02:34:55.630Z,99.29
2018-07-28T02:37:25.828Z,100.00
2018-07-28T02:39:56.544Z,99.38
2018-07-28T02:42:26.848Z,97.94
2018-07-28T02:44:57.164Z,97.08
2018-07-28T02:47:27.625Z,93.84
2018-07-28T02:49:58.080Z,94.64
2018-07-28T02:52:29.000Z,94.90
2018-07-28T02:55:00.043Z,94.84
2018-07-28T02:57:32.175Z,94.34
2018-07-28T03:00:03.529Z,92.70
2018-07-28T03:02:33.858Z,94.04
2018-07-28T03:05:04.240Z,93.99
2018-07-28T03:07:34.892Z,95.89
2018-07-28T03:10:09.288Z,96.24
2018-07-28T03:12:40.560Z,96.52
2018-07-28T03:20:11.048Z,95.59
2018-07-28T03:22:44.403Z,96.54
